sensor_id;sensor_type;location;lat;lon;timestamp;pressure;altitude;pressure_sealevel;temperature;humidity
55914;BME280;58179;48.776;9.124;2022-12-05T00:00:30;97135.53;;;1.51;100.00
55914;BME280;58179;48.776;9.124;2022-12-05T00:02:56;97127.50;;;1.59;100.00
55914;BME280;58179;48.776;9.124;2022-12-05T00:05:22;97130.72;;;1.54;100.00
55914;BME280;58179;48.776;9.124;2022-12-05T00:07:48;97129.91;;;1.54;100.00
55914;BME280;58179;48.776;9.124;2022-12-05T00:10:15;97131.09;;;1.38;100.00
55914;BME280;58179;48.776;9.124;2022-12-05T00:12:41;97129.31;;;1.39;100.00
55914;BME280;58179;48.776;9.124;2022-12-05T00:15:08;97134.94;;;1.42;100.00
55914;BME280;58179;48.776;9.124;2022-12-05T00:17:38;97137.31;;;1.50;100.00
55914;BME280;58179;48.776;9.124;2022-12-05T00:20:06;97137.75;;;1.47;100.00
55914;BME280;58179;48.776;9.124;2022-12-05T00:22:35;97141.53;;;1.45;100.00
55914;BME280;58179;48.776;9.124;2022-12-05T00:25:01;97131.53;;;1.42;100.00
55914;BME280;58179;48.776;9.124;2022-12-05T00:27:29;97126.50;;;1.40;100.00
55914;BME280;58179;48.776;9.124;2022-12-05T00:29:54;97134.13;;;1.42;100.00
55914;BME280;58179;48.776;9.124;2022-12-05T00:32:20;97133.72;;;1.38;100.00
55914;BME280;58179;48.776;9.124;2022-12-05T00:34:46;97129.91;;;1.41;100.00
55914;BME280;58179;48.776;9.124;2022-12-05T00:37:12;97138.53;;;1.48;100.00
55914;BME280;58179;48.776;9.124;2022-12-05T00:39:38;97132.31;;;1.42;100.00
55914;BME280;58179;48.776;9.124;2022-12-05T00:42:04;97131.72;;;1.34;100.00
55914;BME280;58179;48.776;9.124;2022-12-05T00:44:31;97129.31;;;1.32;100.00
55914;BME280;58179;48.776;9.124;2022-12-05T00:46:57;97137.13;;;1.39;100.00
55914;BME280;58179;48.776;9.124;2022-12-05T00:49:23;97143.75;;;1.41;100.00
55914;BME280;58179;48.776;9.124;2022-12-05T00:51:49;97148.97;;;1.41;100.00
55914;BME280;58179;48.776;9.124;2022-12-05T00:54:15;97144.34;;;1.43;100.00
55914;BME280;58179;48.776;9.124;2022-12-05T00:56:42;97147.38;;;1.47;100.00
55914;BME280;58179;48.776;9.124;2022-12-05T00:59:15;97156.59;;;1.49;100.00
55914;BME280;58179;48.776;9.124;2022-12-05T01:01:44;97156.38;;;1.51;100.00
55914;BME280;58179;48.776;9.124;2022-12-05T01:04:13;97160.22;;;1.48;100.00
55914;BME280;58179;48.776;9.124;2022-12-05T01:06:40;97167.03;;;1.49;100.00
55914;BME280;58179;48.776;9.124;2022-12-05T01:09:09;97170.22;;;1.45;100.00
55914;BME280;58179;48.776;9.124;2022-12-05T01:11:36;97170.63;;;1.35;100.00
55914;BME280;58179;48.776;9.124;2022-12-05T01:14:01;97173.63;;;1.39;100.00
55914;BME280;58179;48.776;9.124;2022-12-05T01:16:31;97175.06;;;1.41;100.00
55914;BME280;58179;48.776;9.124;2022-12-05T01:19:03;97188.47;;;1.38;100.00
55914;BME280;58179;48.776;9.124;2022-12-05T01:21:29;97183.44;;;1.37;100.00
55914;BME280;58179;48.776;9.124;2022-12-05T01:23:56;97186.47;;;1.34;100.00
55914;BME280;58179;48.776;9.124;2022-12-05T01:26:22;97182.44;;;1.38;100.00
55914;BME280;58179;48.776;9.124;2022-12-05T01:28:49;97177.84;;;1.33;100.00
55914;BME280;58179;48.776;9.124;2022-12-05T01:31:20;97180.03;;;1.36;100.00
55914;BME280;58179;48.776;9.124;2022-12-05T01:33:47;97194.69;;;1.37;100.00
55914;BME280;58179;48.776;9.124;2022-12-05T01:36:15;97184.63;;;1.21;100.00
55914;BME280;58179;48.776;9.124;2022-12-05T01:38:42;97173.63;;;1.26;100.00
55914;BME280;58179;48.776;9.124;2022-12-05T01:41:14;97173.00;;;1.24;100.00
55914;BME280;58179;48.776;9.124;2022-12-05T01:43:59;97186.63;;;1.19;100.00
55914;BME280;58179;48.776;9.124;2022-12-05T01:46:27;97189.22;;;1.12;100.00
55914;BME280;58179;48.776;9.124;2022-12-05T01:48:59;97187.38;;;1.06;100.00
55914;BME280;58179;48.776;9.124;2022-12-05T01:51:28;97200.00;;;1.03;100.00
55914;BME280;58179;48.776;9.124;2022-12-05T01:53:54;97207.84;;;1.03;100.00
55914;BME280;58179;48.776;9.124;2022-12-05T01:56:20;97210.81;;;1.00;100.00
55914;BME280;58179;48.776;9.124;2022-12-05T01:58:47;97206.03;;;1.03;100.00
55914;BME280;58179;48.776;9.124;2022-12-05T02:01:15;97202.44;;;1.04;100.00
55914;BME280;58179;48.776;9.124;2022-12-05T02:03:45;97186.78;;;1.04;100.00
55914;BME280;58179;48.776;9.124;2022-12-05T02:06:12;97195.19;;;1.06;100.00
55914;BME280;58179;48.776;9.124;2022-12-05T02:08:40;97193.41;;;1.07;100.00
55914;BME280;58179;48.776;9.124;2022-12-05T02:11:08;97206.63;;;1.05;100.00
55914;BME280;58179;48.776;9.124;2022-12-05T02:13:52;97218.25;;;1.03;100.00
55914;BME280;58179;48.776;9.124;2022-12-05T02:16:32;97211.81;;;0.99;100.00
55914;BME280;58179;48.776;9.124;2022-12-05T02:19:49;97216.22;;;0.98;100.00
55914;BME280;58179;48.776;9.124;2022-12-05T02:23:00;97219.84;;;0.97;100.00
55914;BME280;58179;48.776;9.124;2022-12-05T02:29:11;97224.00;;;0.92;100.00
55914;BME280;58179;48.776;9.124;2022-12-05T02:31:50;97236.63;;;0.88;100.00
55914;BME280;58179;48.776;9.124;2022-12-05T02:34:23;97246.44;;;0.86;100.00
55914;BME280;58179;48.776;9.124;2022-12-05T02:36:56;97249.88;;;0.93;100.00
55914;BME280;58179;48.776;9.124;2022-12-05T02:39:31;97256.28;;;0.91;100.00
55914;BME280;58179;48.776;9.124;2022-12-05T02:42:06;97243.50;;;1.02;100.00
55914;BME280;58179;48.776;9.124;2022-12-05T02:44:39;97247.97;;;1.15;100.00
55914;BME280;58179;48.776;9.124;2022-12-05T02:47:09;97254.00;;;1.22;100.00
55914;BME280;58179;48.776;9.124;2022-12-05T02:49:39;97261.03;;;1.22;100.00
55914;BME280;58179;48.776;9.124;2022-12-05T02:52:09;97254.47;;;1.32;100.00
55914;BME280;58179;48.776;9.124;2022-12-05T02:54:40;97257.25;;;1.31;100.00
55914;BME280;58179;48.776;9.124;2022-12-05T02:57:08;97266.25;;;1.28;100.00
55914;BME280;58179;48.776;9.124;2022-12-05T02:59:34;97270.91;;;1.33;100.00
55914;BME280;58179;48.776;9.124;2022-12-05T03:02:01;97262.28;;;1.32;100.00
55914;BME280;58179;48.776;9.124;2022-12-05T03:04:29;97257.47;;;1.36;100.00
55914;BME280;58179;48.776;9.124;2022-12-05T03:06:59;97253.84;;;1.37;100.00
55914;BME280;58179;48.776;9.124;2022-12-05T03:09:31;97236.03;;;1.40;100.00
55914;BME280;58179;48.776;9.124;2022-12-05T03:12:02;97242.63;;;1.43;100.00
55914;BME280;58179;48.776;9.124;2022-12-05T03:14:35;97238.44;;;1.42;100.00
55914;BME280;58179;48.776;9.124;2022-12-05T03:17:08;97232.00;;;1.44;100.00
55914;BME280;58179;48.776;9.124;2022-12-05T03:19:44;97228.41;;;1.45;100.00
55914;BME280;58179;48.776;9.124;2022-12-05T03:22:19;97232.63;;;1.46;100.00
55914;BME280;58179;48.776;9.124;2022-12-05T03:24:49;97226.41;;;1.47;100.00
55914;BME280;58179;48.776;9.124;2022-12-05T03:27:20;97234.63;;;1.51;100.00
55914;BME280;58179;48.776;9.124;2022-12-05T03:29:53;97230.84;;;1.53;100.00
55914;BME280;58179;48.776;9.124;2022-12-05T03:32:24;97246.28;;;1.55;100.00
55914;BME280;58179;48.776;9.124;2022-12-05T03:35:04;97233.06;;;1.57;100.00
55914;BME280;58179;48.776;9.124;2022-12-05T03:37:41;97229.66;;;1.56;100.00
55914;BME280;58179;48.776;9.124;2022-12-05T03:40:20;97250.69;;;1.48;100.00
55914;BME280;58179;48.776;9.124;2022-12-05T03:42:54;97252.06;;;1.44;100.00
55914;BME280;58179;48.776;9.124;2022-12-05T03:45:30;97246.50;;;1.53;100.00
55914;BME280;58179;48.776;9.124;2022-12-05T03:48:09;97238.66;;;1.60;100.00
55914;BME280;58179;48.776;9.124;2022-12-05T03:50:41;97233.44;;;1.60;100.00
55914;BME280;58179;48.776;9.124;2022-12-05T03:53:14;97236.06;;;1.60;100.00
55914;BME280;58179;48.776;9.124;2022-12-05T03:55:43;97243.69;;;1.62;100.00
55914;BME280;58179;48.776;9.124;2022-12-05T03:58:16;97241.09;;;1.62;100.00
55914;BME280;58179;48.776;9.124;2022-12-05T04:00:45;97244.50;;;1.62;100.00
55914;BME280;58179;48.776;9.124;2022-12-05T04:03:19;97236.25;;;1.59;100.00
55914;BME280;58179;48.776;9.124;2022-12-05T04:05:51;97241.88;;;1.55;100.00
55914;BME280;58179;48.776;9.124;2022-12-05T04:08:23;97237.06;;;1.52;100.00
55914;BME280;58179;48.776;9.124;2022-12-05T04:10:54;97225.00;;;1.51;100.00
55914;BME280;58179;48.776;9.124;2022-12-05T04:13:27;97215.56;;;1.50;100.00
55914;BME280;58179;48.776;9.124;2022-12-05T04:15:58;97227.41;;;1.53;100.00
55914;BME280;58179;48.776;9.124;2022-12-05T04:18:49;97232.63;;;1.53;100.00
55914;BME280;58179;48.776;9.124;2022-12-05T04:21:20;97236.84;;;1.54;100.00
55914;BME280;58179;48.776;9.124;2022-12-05T04:24:10;97263.16;;;1.59;100.00
55914;BME280;58179;48.776;9.124;2022-12-05T04:27:18;97263.16;;;1.59;100.00
55914;BME280;58179;48.776;9.124;2022-12-05T04:29:53;97257.13;;;1.59;100.00
55914;BME280;58179;48.776;9.124;2022-12-05T04:32:25;97255.94;;;1.61;100.00
55914;BME280;58179;48.776;9.124;2022-12-05T04:34:59;97255.13;;;1.61;100.00
55914;BME280;58179;48.776;9.124;2022-12-05T04:37:31;97259.16;;;1.63;100.00
55914;BME280;58179;48.776;9.124;2022-12-05T04:40:04;97266.38;;;1.61;100.00
55914;BME280;58179;48.776;9.124;2022-12-05T04:42:33;97266.38;;;1.61;100.00
55914;BME280;58179;48.776;9.124;2022-12-05T04:45:04;97263.75;;;1.61;100.00
55914;BME280;58179;48.776;9.124;2022-12-05T04:47:38;97266.38;;;1.61;100.00
55914;BME280;58179;48.776;9.124;2022-12-05T04:50:08;97273.81;;;1.64;100.00
55914;BME280;58179;48.776;9.124;2022-12-05T04:52:37;97272.19;;;1.63;100.00
55914;BME280;58179;48.776;9.124;2022-12-05T04:55:08;97268.78;;;1.63;100.00
55914;BME280;58179;48.776;9.124;2022-12-05T04:57:40;97274.19;;;1.61;100.00
55914;BME280;58179;48.776;9.124;2022-12-05T05:00:08;97274.56;;;1.58;100.00
55914;BME280;58179;48.776;9.124;2022-12-05T05:02:41;97276.97;;;1.53;100.00
55914;BME280;58179;48.776;9.124;2022-12-05T05:05:11;97277.97;;;1.52;100.00
55914;BME280;58179;48.776;9.124;2022-12-05T05:07:44;97279.41;;;1.54;100.00
55914;BME280;58179;48.776;9.124;2022-12-05T05:10:14;97282.63;;;1.57;100.00
55914;BME280;58179;48.776;9.124;2022-12-05T05:12:41;97287.44;;;1.60;100.00
55914;BME280;58179;48.776;9.124;2022-12-05T05:15:08;97288.84;;;1.62;100.00
55914;BME280;58179;48.776;9.124;2022-12-05T05:17:34;97282.63;;;1.63;100.00
55914;BME280;58179;48.776;9.124;2022-12-05T05:20:00;97277.22;;;1.65;100.00
55914;BME280;58179;48.776;9.124;2022-12-05T05:22:48;97278.03;;;1.65;100.00
55914;BME280;58179;48.776;9.124;2022-12-05T05:25:14;97289.47;;;1.64;100.00
55914;BME280;58179;48.776;9.124;2022-12-05T05:27:40;97288.84;;;1.62;100.00
55914;BME280;58179;48.776;9.124;2022-12-05T05:30:07;97307.50;;;1.66;100.00
55914;BME280;58179;48.776;9.124;2022-12-05T05:32:33;97306.50;;;1.67;100.00
55914;BME280;58179;48.776;9.124;2022-12-05T05:34:59;97321.97;;;1.68;100.00
55914;BME280;58179;48.776;9.124;2022-12-05T05:37:25;97315.94;;;1.68;100.00
55914;BME280;58179;48.776;9.124;2022-12-05T05:39:52;97316.38;;;1.71;100.00
55914;BME280;58179;48.776;9.124;2022-12-05T05:42:18;97310.16;;;1.72;100.00
55914;BME280;58179;48.776;9.124;2022-12-05T05:44:44;97306.53;;;1.73;100.00
55914;BME280;58179;48.776;9.124;2022-12-05T05:47:10;97315.38;;;1.72;100.00
55914;BME280;58179;48.776;9.124;2022-12-05T05:49:36;97328.81;;;1.69;100.00
55914;BME280;58179;48.776;9.124;2022-12-05T05:52:03;97325.81;;;1.72;100.00
55914;BME280;58179;48.776;9.124;2022-12-05T05:54:29;97321.00;;;1.76;100.00
55914;BME280;58179;48.776;9.124;2022-12-05T05:56:56;97319.63;;;1.80;100.00
55914;BME280;58179;48.776;9.124;2022-12-05T05:59:22;97315.97;;;1.81;100.00
55914;BME280;58179;48.776;9.124;2022-12-05T06:01:48;97312.59;;;1.80;100.00
55914;BME280;58179;48.776;9.124;2022-12-05T06:04:14;97305.53;;;1.81;100.00
55914;BME280;58179;48.776;9.124;2022-12-05T06:06:40;97311.78;;;1.80;100.00
55914;BME280;58179;48.776;9.124;2022-12-05T06:09:06;97296.50;;;1.77;100.00
55914;BME280;58179;48.776;9.124;2022-12-05T06:11:32;97305.31;;;1.69;100.00
55914;BME280;58179;48.776;9.124;2022-12-05T06:13:59;97315.75;;;1.63;100.00
55914;BME280;58179;48.776;9.124;2022-12-05T06:16:30;97318.34;;;1.56;100.00
55914;BME280;58179;48.776;9.124;2022-12-05T06:18:56;97328.34;;;1.52;100.00
55914;BME280;58179;48.776;9.124;2022-12-05T06:21:22;97327.31;;;1.47;100.00
55914;BME280;58179;48.776;9.124;2022-12-05T06:23:49;97320.09;;;1.42;100.00
55914;BME280;58179;48.776;9.124;2022-12-05T06:26:18;97327.31;;;1.40;100.00
55914;BME280;58179;48.776;9.124;2022-12-05T06:28:45;97332.72;;;1.39;100.00
55914;BME280;58179;48.776;9.124;2022-12-05T06:31:15;97341.13;;;1.34;100.00
55914;BME280;58179;48.776;9.124;2022-12-05T06:33:42;97355.53;;;1.30;100.00
55914;BME280;58179;48.776;9.124;2022-12-05T06:36:11;97354.34;;;1.33;100.00
55914;BME280;58179;48.776;9.124;2022-12-05T06:38:37;97353.75;;;1.37;100.00
55914;BME280;58179;48.776;9.124;2022-12-05T06:41:05;97362.84;;;1.48;100.00
55914;BME280;58179;48.776;9.124;2022-12-05T06:43:31;97368.28;;;1.53;100.00
55914;BME280;58179;48.776;9.124;2022-12-05T06:45:57;97369.28;;;1.52;100.00
55914;BME280;58179;48.776;9.124;2022-12-05T06:48:25;97374.91;;;1.55;100.00
55914;BME280;58179;48.776;9.124;2022-12-05T06:50:51;97370.94;;;1.66;100.00
55914;BME280;58179;48.776;9.124;2022-12-05T06:53:18;97369.75;;;1.69;100.00
55914;BME280;58179;48.776;9.124;2022-12-05T06:55:54;97366.13;;;1.70;100.00
55914;BME280;58179;48.776;9.124;2022-12-05T06:58:20;97371.53;;;1.68;100.00
55914;BME280;58179;48.776;9.124;2022-12-05T07:00:46;97368.94;;;1.68;100.00
55914;BME280;58179;48.776;9.124;2022-12-05T07:03:32;97369.38;;;1.72;100.00
55914;BME280;58179;48.776;9.124;2022-12-05T07:05:59;97369.38;;;1.72;100.00
55914;BME280;58179;48.776;9.124;2022-12-05T07:08:25;97375.00;;;1.75;100.00
55914;BME280;58179;48.776;9.124;2022-12-05T07:10:51;97372.78;;;1.72;100.00
55914;BME280;58179;48.776;9.124;2022-12-05T07:13:17;97367.34;;;1.74;100.00
55914;BME280;58179;48.776;9.124;2022-12-05T07:15:45;97365.53;;;1.74;100.00
55914;BME280;58179;48.776;9.124;2022-12-05T07:18:11;97375.00;;;1.75;100.00
55914;BME280;58179;48.776;9.124;2022-12-05T07:20:38;97377.59;;;1.75;100.00
55914;BME280;58179;48.776;9.124;2022-12-05T07:23:04;97391.66;;;1.81;100.00
55914;BME280;58179;48.776;9.124;2022-12-05T07:25:30;97392.69;;;1.80;100.00
55914;BME280;58179;48.776;9.124;2022-12-05T07:27:56;97402.91;;;1.81;100.00
55914;BME280;58179;48.776;9.124;2022-12-05T07:30:22;97395.31;;;1.86;100.00
55914;BME280;58179;48.776;9.124;2022-12-05T07:32:48;97402.75;;;1.89;100.00
55914;BME280;58179;48.776;9.124;2022-12-05T07:35:14;97400.56;;;1.93;100.00
55914;BME280;58179;48.776;9.124;2022-12-05T07:37:42;97409.78;;;1.95;100.00
55914;BME280;58179;48.776;9.124;2022-12-05T07:40:09;97409.41;;;1.99;100.00
55914;BME280;58179;48.776;9.124;2022-12-05T07:42:36;97401.56;;;1.99;100.00
55914;BME280;58179;48.776;9.124;2022-12-05T07:45:02;97394.16;;;2.02;100.00
55914;BME280;58179;48.776;9.124;2022-12-05T07:47:28;97388.78;;;2.17;100.00
55914;BME280;58179;48.776;9.124;2022-12-05T07:49:55;97390.41;;;2.24;100.00
55914;BME280;58179;48.776;9.124;2022-12-05T07:52:21;97394.00;;;2.23;100.00
55914;BME280;58179;48.776;9.124;2022-12-05T07:54:48;97400.44;;;2.27;100.00
55914;BME280;58179;48.776;9.124;2022-12-05T07:57:14;97405.28;;;2.30;100.00
55914;BME280;58179;48.776;9.124;2022-12-05T07:59:40;97403.88;;;2.34;100.00
55914;BME280;58179;48.776;9.124;2022-12-05T08:02:07;97416.72;;;2.36;100.00
55914;BME280;58179;48.776;9.124;2022-12-05T08:04:33;97408.28;;;2.41;100.00
55914;BME280;58179;48.776;9.124;2022-12-05T08:06:59;97409.09;;;2.41;100.00
55914;BME280;58179;48.776;9.124;2022-12-05T08:09:25;97409.88;;;2.35;100.00
55914;BME280;58179;48.776;9.124;2022-12-05T08:11:53;97410.31;;;2.39;100.00
55914;BME280;58179;48.776;9.124;2022-12-05T08:14:19;97411.69;;;2.34;100.00
55914;BME280;58179;48.776;9.124;2022-12-05T08:16:46;97418.91;;;2.26;100.00
55914;BME280;58179;48.776;9.124;2022-12-05T08:19:12;97419.88;;;2.18;100.00
55914;BME280;58179;48.776;9.124;2022-12-05T08:21:39;97428.16;;;2.22;100.00
55914;BME280;58179;48.776;9.124;2022-12-05T08:24:06;97422.31;;;2.20;100.00
55914;BME280;58179;48.776;9.124;2022-12-05T08:26:33;97438.97;;;2.19;100.00
55914;BME280;58179;48.776;9.124;2022-12-05T08:29:03;97433.16;;;2.17;100.00
55914;BME280;58179;48.776;9.124;2022-12-05T08:31:32;97440.00;;;2.18;100.00
55914;BME280;58179;48.776;9.124;2022-12-05T08:33:59;97434.56;;;2.26;100.00
55914;BME280;58179;48.776;9.124;2022-12-05T08:36:27;97441.22;;;2.28;100.00
55914;BME280;58179;48.776;9.124;2022-12-05T08:38:56;97443.84;;;2.42;100.00
55914;BME280;58179;48.776;9.124;2022-12-05T08:41:22;97447.47;;;2.41;100.00
55914;BME280;58179;48.776;9.124;2022-12-05T08:43:53;97444.84;;;2.41;100.00
55914;BME280;58179;48.776;9.124;2022-12-05T08:46:21;97450.13;;;2.47;100.00
55914;BME280;58179;48.776;9.124;2022-12-05T08:48:47;97456.34;;;2.46;100.00
55914;BME280;58179;48.776;9.124;2022-12-05T08:51:13;97455.34;;;2.54;100.00
55914;BME280;58179;48.776;9.124;2022-12-05T08:53:39;97461.78;;;2.58;100.00
55914;BME280;58179;48.776;9.124;2022-12-05T08:56:08;97459.97;;;2.65;100.00
55914;BME280;58179;48.776;9.124;2022-12-05T08:58:36;97455.19;;;2.68;100.00
55914;BME280;58179;48.776;9.124;2022-12-05T09:01:06;97452.38;;;2.77;100.00
55914;BME280;58179;48.776;9.124;2022-12-05T09:03:34;97454.38;;;2.81;100.00
55914;BME280;58179;48.776;9.124;2022-12-05T09:06:05;97450.97;;;2.81;100.00
55914;BME280;58179;48.776;9.124;2022-12-05T09:08:32;97458.00;;;2.80;100.00
55914;BME280;58179;48.776;9.124;2022-12-05T09:10:58;97470.66;;;2.77;100.00
55914;BME280;58179;48.776;9.124;2022-12-05T09:13:24;97465.63;;;2.88;100.00
55914;BME280;58179;48.776;9.124;2022-12-05T09:15:50;97474.91;;;2.84;100.00
55914;BME280;58179;48.776;9.124;2022-12-05T09:18:16;97479.91;;;2.79;100.00
55914;BME280;58179;48.776;9.124;2022-12-05T09:20:43;97479.91;;;2.72;100.00
55914;BME280;58179;48.776;9.124;2022-12-05T09:23:09;97485.53;;;2.76;100.00
55914;BME280;58179;48.776;9.124;2022-12-05T09:25:35;97479.72;;;2.74;100.00
55914;BME280;58179;48.776;9.124;2022-12-05T09:28:01;97488.97;;;2.77;100.00
55914;BME280;58179;48.776;9.124;2022-12-05T09:30:26;97485.56;;;2.89;100.00
55914;BME280;58179;48.776;9.124;2022-12-05T09:32:52;97492.41;;;2.90;100.00
55914;BME280;58179;48.776;9.124;2022-12-05T09:35:18;97494.22;;;3.03;100.00
55914;BME280;58179;48.776;9.124;2022-12-05T09:37:46;97493.22;;;3.04;100.00
55914;BME280;58179;48.776;9.124;2022-12-05T09:40:15;97497.63;;;3.10;100.00
55914;BME280;58179;48.776;9.124;2022-12-05T09:42:55;97504.09;;;3.14;100.00
55914;BME280;58179;48.776;9.124;2022-12-05T09:45:28;97496.84;;;3.23;100.00
55914;BME280;58179;48.776;9.124;2022-12-05T09:48:00;97504.28;;;3.26;100.00
55914;BME280;58179;48.776;9.124;2022-12-05T09:50:51;97502.09;;;3.23;100.00
55914;BME280;58179;48.776;9.124;2022-12-05T09:53:27;97506.09;;;3.19;100.00
55914;BME280;58179;48.776;9.124;2022-12-05T09:56:01;97509.13;;;3.22;100.00
55914;BME280;58179;48.776;9.124;2022-12-05T09:58:39;97500.06;;;3.38;100.00
55914;BME280;58179;48.776;9.124;2022-12-05T10:01:23;97500.84;;;3.45;100.00
55914;BME280;58179;48.776;9.124;2022-12-05T10:04:17;97503.25;;;3.46;100.00
55914;BME280;58179;48.776;9.124;2022-12-05T10:06:56;97503.66;;;3.50;100.00
55914;BME280;58179;48.776;9.124;2022-12-05T10:09:43;97500.66;;;3.53;100.00
55914;BME280;58179;48.776;9.124;2022-12-05T10:12:22;97509.47;;;3.65;100.00
55914;BME280;58179;48.776;9.124;2022-12-05T10:15:02;97514.75;;;3.52;100.00
55914;BME280;58179;48.776;9.124;2022-12-05T10:17:34;97509.50;;;3.59;100.00
55914;BME280;58179;48.776;9.124;2022-12-05T10:20:04;97505.47;;;3.56;100.00
55914;BME280;58179;48.776;9.124;2022-12-05T10:22:41;97509.47;;;3.72;100.00
55914;BME280;58179;48.776;9.124;2022-12-05T10:25:11;97502.25;;;3.67;100.00
55914;BME280;58179;48.776;9.124;2022-12-05T10:27:41;97503.41;;;3.71;100.00
55914;BME280;58179;48.776;9.124;2022-12-05T10:30:15;97505.19;;;3.84;100.00
55914;BME280;58179;48.776;9.124;2022-12-05T10:32:50;97494.72;;;3.91;100.00
55914;BME280;58179;48.776;9.124;2022-12-05T10:35:19;97492.91;;;3.98;100.00
55914;BME280;58179;48.776;9.124;2022-12-05T10:37:48;97487.81;;;4.09;100.00
55914;BME280;58179;48.776;9.124;2022-12-05T10:40:17;97485.94;;;4.23;100.00
55914;BME280;58179;48.776;9.124;2022-12-05T10:42:45;97487.88;;;4.41;100.00
55914;BME280;58179;48.776;9.124;2022-12-05T10:45:20;97484.41;;;4.47;100.00
55914;BME280;58179;48.776;9.124;2022-12-05T10:47:47;97491.59;;;4.64;100.00
55914;BME280;58179;48.776;9.124;2022-12-05T10:50:24;97481.94;;;4.58;100.00
55914;BME280;58179;48.776;9.124;2022-12-05T10:52:52;97485.34;;;4.59;100.00
55914;BME280;58179;48.776;9.124;2022-12-05T10:55:20;97480.66;;;4.67;100.00
55914;BME280;58179;48.776;9.124;2022-12-05T10:57:50;97491.63;;;4.89;100.00
55914;BME280;58179;48.776;9.124;2022-12-05T11:00:21;97484.44;;;4.78;100.00
55914;BME280;58179;48.776;9.124;2022-12-05T11:02:48;97480.63;;;4.74;100.00
55914;BME280;58179;48.776;9.124;2022-12-05T11:05:17;97483.19;;;4.87;100.00
55914;BME280;58179;48.776;9.124;2022-12-05T11:07:57;97484.59;;;5.15;100.00
55914;BME280;58179;48.776;9.124;2022-12-05T11:10:29;97473.22;;;5.21;100.00
55914;BME280;58179;48.776;9.124;2022-12-05T11:12:57;97477.09;;;5.18;100.00
55914;BME280;58179;48.776;9.124;2022-12-05T11:15:26;97481.53;;;5.18;100.00
55914;BME280;58179;48.776;9.124;2022-12-05T11:17:54;97476.25;;;5.24;100.00
55914;BME280;58179;48.776;9.124;2022-12-05T11:20:38;97477.41;;;5.28;100.00
55914;BME280;58179;48.776;9.124;2022-12-05T11:23:21;97473.03;;;5.22;100.00
55914;BME280;58179;48.776;9.124;2022-12-05T11:25:56;97471.47;;;5.15;100.00
55914;BME280;58179;48.776;9.124;2022-12-05T11:28:30;97462.84;;;5.07;100.00
55914;BME280;58179;48.776;9.124;2022-12-05T11:30:58;97468.69;;;5.10;100.00
55914;BME280;58179;48.776;9.124;2022-12-05T11:33:26;97467.81;;;5.16;100.00
55914;BME280;58179;48.776;9.124;2022-12-05T11:36:34;97472.69;;;5.37;100.00
55914;BME280;58179;48.776;9.124;2022-12-05T11:39:01;97470.19;;;5.24;100.00
55914;BME280;58179;48.776;9.124;2022-12-05T11:41:55;97465.16;;;5.65;100.00
55914;BME280;58179;48.776;9.124;2022-12-05T11:45:09;97464.97;;;6.03;100.00
55914;BME280;58179;48.776;9.124;2022-12-05T11:48:10;97460.38;;;6.47;100.00
55914;BME280;58179;48.776;9.124;2022-12-05T11:50:57;97463.78;;;6.66;100.00
55914;BME280;58179;48.776;9.124;2022-12-05T11:53:44;97458.19;;;6.74;100.00
55914;BME280;58179;48.776;9.124;2022-12-05T11:56:35;97459.59;;;6.76;100.00
55914;BME280;58179;48.776;9.124;2022-12-05T11:59:28;97456.28;;;6.51;100.00
55914;BME280;58179;48.776;9.124;2022-12-05T12:02:11;97455.88;;;6.66;100.00
55914;BME280;58179;48.776;9.124;2022-12-05T12:04:51;97460.38;;;6.47;100.00
55914;BME280;58179;48.776;9.124;2022-12-05T12:07:36;97456.78;;;6.59;100.00
55914;BME280;58179;48.776;9.124;2022-12-05T12:10:22;97460.63;;;6.45;100.00
55914;BME280;58179;48.776;9.124;2022-12-05T12:13:20;97457.59;;;6.12;100.00
55914;BME280;58179;48.776;9.124;2022-12-05T12:16:12;97454.81;;;5.89;100.00
55914;BME280;58179;48.776;9.124;2022-12-05T12:19:10;97447.53;;;5.91;100.00
55914;BME280;58179;48.776;9.124;2022-12-05T12:21:56;97461.91;;;5.88;100.00
55914;BME280;58179;48.776;9.124;2022-12-05T12:24:34;97458.91;;;5.84;100.00
55914;BME280;58179;48.776;9.124;2022-12-05T12:27:08;97460.41;;;5.56;100.00
55914;BME280;58179;48.776;9.124;2022-12-05T12:29:54;97454.53;;;5.78;100.00
55914;BME280;58179;48.776;9.124;2022-12-05T12:32:30;97456.00;;;5.93;100.00
55914;BME280;58179;48.776;9.124;2022-12-05T12:35:26;97446.88;;;5.95;100.00
55914;BME280;58179;48.776;9.124;2022-12-05T12:38:23;97452.19;;;5.89;100.00
55914;BME280;58179;48.776;9.124;2022-12-05T12:40:54;97457.97;;;5.97;100.00
55914;BME280;58179;48.776;9.124;2022-12-05T12:43:40;97467.53;;;5.92;100.00
55914;BME280;58179;48.776;9.124;2022-12-05T12:46:21;97459.69;;;5.85;100.00
55914;BME280;58179;48.776;9.124;2022-12-05T12:49:06;97461.75;;;5.83;100.00
55914;BME280;58179;48.776;9.124;2022-12-05T12:51:44;97458.59;;;5.74;100.00
55914;BME280;58179;48.776;9.124;2022-12-05T12:54:32;97456.19;;;5.55;100.00
55914;BME280;58179;48.776;9.124;2022-12-05T12:57:09;97452.88;;;5.59;100.00
55914;BME280;58179;48.776;9.124;2022-12-05T13:00:02;97457.78;;;5.56;100.00
55914;BME280;58179;48.776;9.124;2022-12-05T13:02:37;97452.28;;;5.57;100.00
55914;BME280;58179;48.776;9.124;2022-12-05T13:05:20;97459.59;;;5.73;100.00
55914;BME280;58179;48.776;9.124;2022-12-05T13:08:03;97459.19;;;5.95;100.00
55914;BME280;58179;48.776;9.124;2022-12-05T13:10:37;97452.19;;;5.89;100.00
55914;BME280;58179;48.776;9.124;2022-12-05T13:13:06;97440.41;;;5.73;100.00
55914;BME280;58179;48.776;9.124;2022-12-05T13:15:40;97450.56;;;5.69;100.00
55914;BME280;58179;48.776;9.124;2022-12-05T13:18:16;97443.25;;;5.71;100.00
55914;BME280;58179;48.776;9.124;2022-12-05T13:20:42;97448.50;;;5.71;100.00
55914;BME280;58179;48.776;9.124;2022-12-05T13:23:13;97446.63;;;5.60;100.00
55914;BME280;58179;48.776;9.124;2022-12-05T13:25:42;97434.00;;;5.69;100.00
55914;BME280;58179;48.776;9.124;2022-12-05T13:28:24;97446.06;;;5.76;100.00